sensor_id;sensor_type;location;lat;lon;timestamp;P1;durP1;ratioP1;P2;durP2;ratioP2
38615;SDS011;24370;51.986;4.666;2023-02-28T00:00:42;3.47;;;2.10;;
38615;SDS011;24370;51.986;4.666;2023-02-28T00:03:08;7.53;;;3.27;;
38615;SDS011;24370;51.986;4.666;2023-02-28T00:05:34;5.60;;;2.37;;
38615;SDS011;24370;51.986;4.666;2023-02-28T00:07:59;5.77;;;2.40;;
38615;SDS011;24370;51.986;4.666;2023-02-28T00:10:29;3.77;;;2.33;;
38615;SDS011;24370;51.986;4.666;2023-02-28T00:12:58;7.30;;;2.33;;
38615;SDS011;24370;51.986;4.666;2023-02-28T00:15:26;2.90;;;2.00;;
38615;SDS011;24370;51.986;4.666;2023-02-28T00:17:52;5.00;;;2.20;;
38615;SDS011;24370;51.986;4.666;2023-02-28T00:20:18;7.07;;;2.40;;
38615;SDS011;24370;51.986;4.666;2023-02-28T00:22:45;6.40;;;2.63;;
38615;SDS011;24370;51.986;4.666;2023-02-28T00:25:13;3.70;;;2.20;;
38615;SDS011;24370;51.986;4.666;2023-02-28T00:27:40;5.40;;;2.17;;
38615;SDS011;24370;51.986;4.666;2023-02-28T00:30:08;7.47;;;2.93;;
38615;SDS011;24370;51.986;4.666;2023-02-28T00:32:36;5.97;;;2.00;;
38615;SDS011;24370;51.986;4.666;2023-02-28T00:35:03;9.83;;;2.20;;
38615;SDS011;24370;51.986;4.666;2023-02-28T00:37:29;3.67;;;2.00;;
38615;SDS011;24370;51.986;4.666;2023-02-28T00:39:54;6.10;;;2.30;;
38615;SDS011;24370;51.986;4.666;2023-02-28T00:42:20;5.83;;;2.10;;
38615;SDS011;24370;51.986;4.666;2023-02-28T00:44:46;6.90;;;2.00;;
38615;SDS011;24370;51.986;4.666;2023-02-28T00:47:11;2.60;;;2.07;;
38615;SDS011;24370;51.986;4.666;2023-02-28T00:49:36;6.33;;;2.30;;
38615;SDS011;24370;51.986;4.666;2023-02-28T00:52:02;7.53;;;2.80;;
38615;SDS011;24370;51.986;4.666;2023-02-28T00:54:27;6.47;;;2.40;;
38615;SDS011;24370;51.986;4.666;2023-02-28T00:56:53;3.07;;;2.07;;
38615;SDS011;24370;51.986;4.666;2023-02-28T00:59:18;5.07;;;2.03;;
38615;SDS011;24370;51.986;4.666;2023-02-28T01:01:44;5.13;;;2.00;;
38615;SDS011;24370;51.986;4.666;2023-02-28T01:04:10;6.87;;;2.20;;
38615;SDS011;24370;51.986;4.666;2023-02-28T01:06:36;3.90;;;1.70;;
38615;SDS011;24370;51.986;4.666;2023-02-28T01:09:02;4.13;;;2.07;;
38615;SDS011;24370;51.986;4.666;2023-02-28T01:11:29;5.40;;;1.90;;
38615;SDS011;24370;51.986;4.666;2023-02-28T01:13:55;4.87;;;2.30;;
38615;SDS011;24370;51.986;4.666;2023-02-28T01:16:21;2.70;;;1.80;;
38615;SDS011;24370;51.986;4.666;2023-02-28T01:18:47;4.57;;;1.90;;
38615;SDS011;24370;51.986;4.666;2023-02-28T01:21:14;5.67;;;2.00;;
38615;SDS011;24370;51.986;4.666;2023-02-28T01:23:41;7.17;;;2.10;;
38615;SDS011;24370;51.986;4.666;2023-02-28T01:26:07;7.20;;;2.00;;
38615;SDS011;24370;51.986;4.666;2023-02-28T01:28:33;2.73;;;2.40;;
38615;SDS011;24370;51.986;4.666;2023-02-28T01:30:59;3.23;;;1.60;;
38615;SDS011;24370;51.986;4.666;2023-02-28T01:33:26;6.27;;;1.80;;
38615;SDS011;24370;51.986;4.666;2023-02-28T01:36:09;5.03;;;1.90;;
38615;SDS011;24370;51.986;4.666;2023-02-28T01:38:36;6.03;;;1.83;;
38615;SDS011;24370;51.986;4.666;2023-02-28T01:41:02;5.70;;;1.93;;
38615;SDS011;24370;51.986;4.666;2023-02-28T01:43:32;5.77;;;2.13;;
38615;SDS011;24370;51.986;4.666;2023-02-28T01:46:14;3.53;;;2.30;;
38615;SDS011;24370;51.986;4.666;2023-02-28T01:48:41;6.13;;;2.17;;
38615;SDS011;24370;51.986;4.666;2023-02-28T01:51:16;4.70;;;2.00;;
38615;SDS011;24370;51.986;4.666;2023-02-28T01:53:49;4.17;;;2.30;;
38615;SDS011;24370;51.986;4.666;2023-02-28T01:56:21;11.05;;;2.47;;
38615;SDS011;24370;51.986;4.666;2023-02-28T01:58:51;5.07;;;2.27;;
38615;SDS011;24370;51.986;4.666;2023-02-28T02:01:18;6.60;;;1.90;;
38615;SDS011;24370;51.986;4.666;2023-02-28T02:03:48;4.27;;;2.13;;
38615;SDS011;24370;51.986;4.666;2023-02-28T02:06:20;4.97;;;2.00;;
38615;SDS011;24370;51.986;4.666;2023-02-28T02:08:58;4.50;;;2.13;;
38615;SDS011;24370;51.986;4.666;2023-02-28T02:11:24;5.93;;;2.20;;
38615;SDS011;24370;51.986;4.666;2023-02-28T02:16:32;5.73;;;2.13;;
38615;SDS011;24370;51.986;4.666;2023-02-28T02:30:20;5.07;;;2.70;;
38615;SDS011;24370;51.986;4.666;2023-02-28T02:35:29;9.23;;;2.67;;
38615;SDS011;24370;51.986;4.666;2023-02-28T02:38:19;9.73;;;2.70;;
38615;SDS011;24370;51.986;4.666;2023-02-28T02:40:59;3.10;;;2.00;;
38615;SDS011;24370;51.986;4.666;2023-02-28T02:46:26;5.50;;;2.63;;
38615;SDS011;24370;51.986;4.666;2023-02-28T02:48:58;5.90;;;2.33;;
38615;SDS011;24370;51.986;4.666;2023-02-28T02:51:27;5.37;;;2.53;;
38615;SDS011;24370;51.986;4.666;2023-02-28T02:53:57;7.07;;;2.57;;
38615;SDS011;24370;51.986;4.666;2023-02-28T02:56:30;4.70;;;2.37;;
38615;SDS011;24370;51.986;4.666;2023-02-28T02:59:06;5.07;;;2.70;;
38615;SDS011;24370;51.986;4.666;2023-02-28T03:01:34;6.50;;;2.43;;
38615;SDS011;24370;51.986;4.666;2023-02-28T03:04:04;4.13;;;2.40;;
38615;SDS011;24370;51.986;4.666;2023-02-28T03:09:00;10.10;;;2.50;;
38615;SDS011;24370;51.986;4.666;2023-02-28T03:11:26;6.17;;;2.87;;
38615;SDS011;24370;51.986;4.666;2023-02-28T03:19:48;9.50;;;2.57;;
38615;SDS011;24370;51.986;4.666;2023-02-28T03:22:39;5.28;;;2.50;;
38615;SDS011;24370;51.986;4.666;2023-02-28T03:25:23;6.07;;;2.67;;
38615;SDS011;24370;51.986;4.666;2023-02-28T03:33:28;6.13;;;2.80;;
38615;SDS011;24370;51.986;4.666;2023-02-28T03:35:59;6.25;;;3.00;;
38615;SDS011;24370;51.986;4.666;2023-02-28T03:41:10;5.37;;;2.13;;
38615;SDS011;24370;51.986;4.666;2023-02-28T03:43:41;6.43;;;3.03;;
38615;SDS011;24370;51.986;4.666;2023-02-28T03:46:14;5.93;;;2.50;;
38615;SDS011;24370;51.986;4.666;2023-02-28T03:48:51;8.63;;;2.95;;
38615;SDS011;24370;51.986;4.666;2023-02-28T03:51:22;5.10;;;2.97;;
38615;SDS011;24370;51.986;4.666;2023-02-28T03:53:56;5.10;;;2.77;;
38615;SDS011;24370;51.986;4.666;2023-02-28T03:56:29;6.37;;;2.90;;
38615;SDS011;24370;51.986;4.666;2023-02-28T04:01:38;6.53;;;3.53;;
38615;SDS011;24370;51.986;4.666;2023-02-28T04:04:07;7.07;;;3.00;;
38615;SDS011;24370;51.986;4.666;2023-02-28T04:06:34;3.97;;;3.10;;
38615;SDS011;24370;51.986;4.666;2023-02-28T04:09:01;7.17;;;3.23;;
38615;SDS011;24370;51.986;4.666;2023-02-28T04:11:45;7.90;;;3.90;;
38615;SDS011;24370;51.986;4.666;2023-02-28T04:14:16;6.60;;;3.47;;
38615;SDS011;24370;51.986;4.666;2023-02-28T04:16:42;5.57;;;3.60;;
38615;SDS011;24370;51.986;4.666;2023-02-28T04:19:08;9.40;;;4.33;;
38615;SDS011;24370;51.986;4.666;2023-02-28T04:21:36;7.43;;;3.80;;
38615;SDS011;24370;51.986;4.666;2023-02-28T04:24:07;6.47;;;4.03;;
38615;SDS011;24370;51.986;4.666;2023-02-28T04:26:39;8.73;;;3.80;;
38615;SDS011;24370;51.986;4.666;2023-02-28T04:29:05;12.27;;;4.00;;
38615;SDS011;24370;51.986;4.666;2023-02-28T04:31:32;7.00;;;4.07;;
38615;SDS011;24370;51.986;4.666;2023-02-28T04:33:58;7.20;;;3.80;;
38615;SDS011;24370;51.986;4.666;2023-02-28T04:36:24;7.77;;;3.63;;
38615;SDS011;24370;51.986;4.666;2023-02-28T04:38:50;6.67;;;3.60;;
38615;SDS011;24370;51.986;4.666;2023-02-28T04:41:16;8.30;;;3.77;;
38615;SDS011;24370;51.986;4.666;2023-02-28T04:43:42;6.50;;;4.33;;
38615;SDS011;24370;51.986;4.666;2023-02-28T04:46:07;8.47;;;4.03;;
38615;SDS011;24370;51.986;4.666;2023-02-28T04:48:34;8.17;;;4.20;;
38615;SDS011;24370;51.986;4.666;2023-02-28T04:51:06;8.07;;;4.57;;
38615;SDS011;24370;51.986;4.666;2023-02-28T04:53:34;9.38;;;4.90;;
38615;SDS011;24370;51.986;4.666;2023-02-28T04:56:00;11.20;;;4.90;;
38615;SDS011;24370;51.986;4.666;2023-02-28T04:58:26;13.10;;;5.40;;
38615;SDS011;24370;51.986;4.666;2023-02-28T05:00:53;10.53;;;5.57;;
38615;SDS011;24370;51.986;4.666;2023-02-28T05:03:19;8.27;;;4.60;;
38615;SDS011;24370;51.986;4.666;2023-02-28T05:05:45;8.37;;;5.97;;
38615;SDS011;24370;51.986;4.666;2023-02-28T05:08:11;14.07;;;5.73;;
38615;SDS011;24370;51.986;4.666;2023-02-28T05:10:36;14.57;;;5.03;;
38615;SDS011;24370;51.986;4.666;2023-02-28T05:13:02;7.13;;;4.20;;
38615;SDS011;24370;51.986;4.666;2023-02-28T05:15:27;7.03;;;4.57;;
38615;SDS011;24370;51.986;4.666;2023-02-28T05:17:52;8.60;;;4.57;;
38615;SDS011;24370;51.986;4.666;2023-02-28T05:20:18;11.73;;;4.33;;
38615;SDS011;24370;51.986;4.666;2023-02-28T05:22:43;10.47;;;4.80;;
38615;SDS011;24370;51.986;4.666;2023-02-28T05:25:12;9.90;;;4.30;;
38615;SDS011;24370;51.986;4.666;2023-02-28T05:27:41;8.07;;;4.40;;
38615;SDS011;24370;51.986;4.666;2023-02-28T05:30:07;8.40;;;5.10;;
38615;SDS011;24370;51.986;4.666;2023-02-28T05:32:35;7.90;;;4.37;;
38615;SDS011;24370;51.986;4.666;2023-02-28T05:35:04;8.93;;;4.70;;
38615;SDS011;24370;51.986;4.666;2023-02-28T05:37:30;9.83;;;4.03;;
38615;SDS011;24370;51.986;4.666;2023-02-28T05:39:55;12.10;;;4.47;;
38615;SDS011;24370;51.986;4.666;2023-02-28T05:42:21;7.77;;;4.60;;
38615;SDS011;24370;51.986;4.666;2023-02-28T05:44:46;10.83;;;5.00;;
38615;SDS011;24370;51.986;4.666;2023-02-28T05:47:11;14.70;;;7.10;;
38615;SDS011;24370;51.986;4.666;2023-02-28T05:49:40;14.17;;;6.70;;
38615;SDS011;24370;51.986;4.666;2023-02-28T05:52:06;9.97;;;5.90;;
38615;SDS011;24370;51.986;4.666;2023-02-28T05:54:31;12.60;;;5.40;;
38615;SDS011;24370;51.986;4.666;2023-02-28T05:56:56;7.17;;;4.57;;
38615;SDS011;24370;51.986;4.666;2023-02-28T05:59:22;6.80;;;5.23;;
38615;SDS011;24370;51.986;4.666;2023-02-28T06:01:47;12.27;;;5.87;;
38615;SDS011;24370;51.986;4.666;2023-02-28T06:04:13;8.70;;;5.17;;
38615;SDS011;24370;51.986;4.666;2023-02-28T06:06:43;8.23;;;4.50;;
38615;SDS011;24370;51.986;4.666;2023-02-28T06:09:09;6.20;;;4.10;;
38615;SDS011;24370;51.986;4.666;2023-02-28T06:11:35;7.23;;;5.43;;
38615;SDS011;24370;51.986;4.666;2023-02-28T06:14:01;9.20;;;4.50;;
38615;SDS011;24370;51.986;4.666;2023-02-28T06:16:28;6.70;;;4.10;;
38615;SDS011;24370;51.986;4.666;2023-02-28T06:18:54;5.60;;;3.80;;
38615;SDS011;24370;51.986;4.666;2023-02-28T06:21:22;6.20;;;3.93;;
38615;SDS011;24370;51.986;4.666;2023-02-28T06:23:49;7.23;;;3.73;;
38615;SDS011;24370;51.986;4.666;2023-02-28T06:26:14;5.90;;;3.07;;
38615;SDS011;24370;51.986;4.666;2023-02-28T06:28:40;5.00;;;3.10;;
38615;SDS011;24370;51.986;4.666;2023-02-28T06:31:09;5.20;;;3.27;;
38615;SDS011;24370;51.986;4.666;2023-02-28T06:33:36;7.43;;;3.47;;
38615;SDS011;24370;51.986;4.666;2023-02-28T06:36:03;7.37;;;3.93;;
38615;SDS011;24370;51.986;4.666;2023-02-28T06:38:30;8.03;;;3.50;;
38615;SDS011;24370;51.986;4.666;2023-02-28T06:40:56;5.83;;;3.37;;
38615;SDS011;24370;51.986;4.666;2023-02-28T06:43:23;7.47;;;3.57;;
38615;SDS011;24370;51.986;4.666;2023-02-28T06:45:49;6.43;;;3.70;;
38615;SDS011;24370;51.986;4.666;2023-02-28T06:48:15;6.13;;;3.73;;
38615;SDS011;24370;51.986;4.666;2023-02-28T06:50:41;8.20;;;4.00;;
38615;SDS011;24370;51.986;4.666;2023-02-28T06:53:07;7.03;;;3.57;;
38615;SDS011;24370;51.986;4.666;2023-02-28T06:55:32;6.33;;;3.50;;
38615;SDS011;24370;51.986;4.666;2023-02-28T06:57:58;6.53;;;4.53;;
38615;SDS011;24370;51.986;4.666;2023-02-28T07:00:23;4.93;;;4.00;;
38615;SDS011;24370;51.986;4.666;2023-02-28T07:02:49;6.17;;;3.87;;
38615;SDS011;24370;51.986;4.666;2023-02-28T07:05:15;9.40;;;4.10;;
38615;SDS011;24370;51.986;4.666;2023-02-28T07:07:40;8.97;;;4.50;;
38615;SDS011;24370;51.986;4.666;2023-02-28T07:10:09;7.43;;;4.57;;
38615;SDS011;24370;51.986;4.666;2023-02-28T07:12:36;8.63;;;4.77;;
38615;SDS011;24370;51.986;4.666;2023-02-28T07:15:02;9.47;;;4.17;;
38615;SDS011;24370;51.986;4.666;2023-02-28T07:17:28;5.57;;;3.87;;
38615;SDS011;24370;51.986;4.666;2023-02-28T07:19:54;8.57;;;4.50;;
38615;SDS011;24370;51.986;4.666;2023-02-28T07:22:19;7.70;;;4.60;;
38615;SDS011;24370;51.986;4.666;2023-02-28T07:24:44;7.33;;;4.57;;
38615;SDS011;24370;51.986;4.666;2023-02-28T07:27:10;10.83;;;4.33;;
38615;SDS011;24370;51.986;4.666;2023-02-28T07:29:36;9.03;;;4.77;;
38615;SDS011;24370;51.986;4.666;2023-02-28T07:32:02;6.70;;;4.60;;
38615;SDS011;24370;51.986;4.666;2023-02-28T07:34:27;13.20;;;4.77;;
38615;SDS011;24370;51.986;4.666;2023-02-28T07:36:53;7.90;;;4.53;;
38615;SDS011;24370;51.986;4.666;2023-02-28T07:39:19;8.20;;;4.90;;
38615;SDS011;24370;51.986;4.666;2023-02-28T07:41:45;9.90;;;4.73;;
38615;SDS011;24370;51.986;4.666;2023-02-28T07:44:11;7.30;;;5.00;;
38615;SDS011;24370;51.986;4.666;2023-02-28T07:46:36;7.83;;;4.93;;
38615;SDS011;24370;51.986;4.666;2023-02-28T07:49:02;8.30;;;5.23;;
38615;SDS011;24370;51.986;4.666;2023-02-28T07:51:28;10.30;;;4.97;;
38615;SDS011;24370;51.986;4.666;2023-02-28T07:53:54;7.90;;;4.67;;
38615;SDS011;24370;51.986;4.666;2023-02-28T07:56:20;9.00;;;4.90;;
38615;SDS011;24370;51.986;4.666;2023-02-28T07:58:45;9.90;;;6.23;;
38615;SDS011;24370;51.986;4.666;2023-02-28T08:01:11;13.43;;;7.90;;
38615;SDS011;24370;51.986;4.666;2023-02-28T08:03:38;13.37;;;7.87;;
38615;SDS011;24370;51.986;4.666;2023-02-28T08:06:04;12.57;;;6.13;;
38615;SDS011;24370;51.986;4.666;2023-02-28T08:08:31;10.83;;;6.67;;
38615;SDS011;24370;51.986;4.666;2023-02-28T08:11:01;8.93;;;5.63;;
38615;SDS011;24370;51.986;4.666;2023-02-28T08:13:28;7.73;;;4.93;;
38615;SDS011;24370;51.986;4.666;2023-02-28T08:15:54;9.47;;;5.07;;
38615;SDS011;24370;51.986;4.666;2023-02-28T08:18:20;10.07;;;4.43;;
38615;SDS011;24370;51.986;4.666;2023-02-28T08:20:46;7.37;;;5.03;;
38615;SDS011;24370;51.986;4.666;2023-02-28T08:23:11;13.57;;;5.30;;
38615;SDS011;24370;51.986;4.666;2023-02-28T08:25:36;8.50;;;5.27;;
38615;SDS011;24370;51.986;4.666;2023-02-28T08:28:02;7.50;;;5.40;;
38615;SDS011;24370;51.986;4.666;2023-02-28T08:30:28;8.93;;;5.23;;
38615;SDS011;24370;51.986;4.666;2023-02-28T08:32:53;9.83;;;5.40;;
38615;SDS011;24370;51.986;4.666;2023-02-28T08:35:20;9.70;;;5.70;;
38615;SDS011;24370;51.986;4.666;2023-02-28T08:37:47;10.50;;;6.00;;
38615;SDS011;24370;51.986;4.666;2023-02-28T08:40:13;14.90;;;6.60;;
38615;SDS011;24370;51.986;4.666;2023-02-28T08:42:43;10.80;;;6.53;;
38615;SDS011;24370;51.986;4.666;2023-02-28T08:45:09;11.33;;;6.17;;
38615;SDS011;24370;51.986;4.666;2023-02-28T08:47:35;10.43;;;6.10;;
38615;SDS011;24370;51.986;4.666;2023-02-28T08:50:00;10.37;;;6.70;;
38615;SDS011;24370;51.986;4.666;2023-02-28T08:52:26;10.23;;;6.20;;
38615;SDS011;24370;51.986;4.666;2023-02-28T08:54:52;12.77;;;6.10;;
38615;SDS011;24370;51.986;4.666;2023-02-28T08:57:17;9.37;;;6.57;;
38615;SDS011;24370;51.986;4.666;2023-02-28T08:59:42;11.37;;;6.27;;
38615;SDS011;24370;51.986;4.666;2023-02-28T09:02:08;11.87;;;6.30;;
38615;SDS011;24370;51.986;4.666;2023-02-28T09:04:37;10.23;;;6.67;;
38615;SDS011;24370;51.986;4.666;2023-02-28T09:07:02;11.47;;;7.20;;
38615;SDS011;24370;51.986;4.666;2023-02-28T09:09:28;15.40;;;6.13;;
38615;SDS011;24370;51.986;4.666;2023-02-28T09:11:55;11.10;;;6.03;;
38615;SDS011;24370;51.986;4.666;2023-02-28T09:14:21;7.10;;;5.57;;
38615;SDS011;24370;51.986;4.666;2023-02-28T09:16:46;10.83;;;6.30;;
38615;SDS011;24370;51.986;4.666;2023-02-28T09:19:12;12.23;;;6.73;;
38615;SDS011;24370;51.986;4.666;2023-02-28T09:21:37;11.17;;;6.17;;
38615;SDS011;24370;51.986;4.666;2023-02-28T09:24:03;12.13;;;6.60;;
38615;SDS011;24370;51.986;4.666;2023-02-28T09:26:28;9.00;;;5.23;;
38615;SDS011;24370;51.986;4.666;2023-02-28T09:28:54;10.53;;;6.03;;
38615;SDS011;24370;51.986;4.666;2023-02-28T09:31:24;19.70;;;9.63;;
38615;SDS011;24370;51.986;4.666;2023-02-28T09:33:52;14.83;;;6.80;;
38615;SDS011;24370;51.986;4.666;2023-02-28T09:36:18;8.90;;;4.60;;
38615;SDS011;24370;51.986;4.666;2023-02-28T09:38:45;7.47;;;4.40;;
38615;SDS011;24370;51.986;4.666;2023-02-28T09:41:19;7.10;;;4.20;;
38615;SDS011;24370;51.986;4.666;2023-02-28T09:43:48;8.77;;;4.80;;
38615;SDS011;24370;51.986;4.666;2023-02-28T09:49:02;6.93;;;4.27;;
38615;SDS011;24370;51.986;4.666;2023-02-28T09:54:21;8.70;;;4.23;;
38615;SDS011;24370;51.986;4.666;2023-02-28T09:56:49;9.87;;;4.83;;
38615;SDS011;24370;51.986;4.666;2023-02-28T10:04:28;7.00;;;4.50;;
38615;SDS011;24370;51.986;4.666;2023-02-28T10:07:00;10.47;;;4.83;;
38615;SDS011;24370;51.986;4.666;2023-02-28T10:09:31;7.27;;;4.80;;
38615;SDS011;24370;51.986;4.666;2023-02-28T10:12:02;8.37;;;5.20;;
38615;SDS011;24370;51.986;4.666;2023-02-28T10:14:31;9.03;;;5.53;;
38615;SDS011;24370;51.986;4.666;2023-02-28T10:17:01;9.27;;;4.60;;
38615;SDS011;24370;51.986;4.666;2023-02-28T10:22:14;5.50;;;4.23;;
38615;SDS011;24370;51.986;4.666;2023-02-28T10:24:55;7.47;;;4.40;;
38615;SDS011;24370;51.986;4.666;2023-02-28T10:27:26;9.40;;;4.60;;
38615;SDS011;24370;51.986;4.666;2023-02-28T10:30:03;6.95;;;4.18;;
38615;SDS011;24370;51.986;4.666;2023-02-28T10:32:29;6.43;;;4.30;;
38615;SDS011;24370;51.986;4.666;2023-02-28T10:35:09;5.20;;;3.97;;
38615;SDS011;24370;51.986;4.666;2023-02-28T10:37:38;6.00;;;4.00;;
38615;SDS011;24370;51.986;4.666;2023-02-28T10:40:06;6.77;;;3.77;;
38615;SDS011;24370;51.986;4.666;2023-02-28T10:42:56;7.10;;;4.30;;
38615;SDS011;24370;51.986;4.666;2023-02-28T10:45:22;7.50;;;3.93;;
38615;SDS011;24370;51.986;4.666;2023-02-28T10:47:54;3.97;;;3.07;;
38615;SDS011;24370;51.986;4.666;2023-02-28T10:58:42;4.53;;;2.37;;
38615;SDS011;24370;51.986;4.666;2023-02-28T11:01:17;5.43;;;2.57;;
38615;SDS011;24370;51.986;4.666;2023-02-28T11:03:58;3.63;;;2.40;;
38615;SDS011;24370;51.986;4.666;2023-02-28T11:06:31;6.40;;;1.90;;
38615;SDS011;24370;51.986;4.666;2023-02-28T11:08:59;3.20;;;1.80;;
38615;SDS011;24370;51.986;4.666;2023-02-28T11:11:44;2.90;;;1.77;;
38615;SDS011;24370;51.986;4.666;2023-02-28T11:14:31;2.53;;;1.80;;
38615;SDS011;24370;51.986;4.666;2023-02-28T11:17:11;2.30;;;1.93;;
38615;SDS011;24370;51.986;4.666;2023-02-28T11:19:47;2.70;;;2.30;;
38615;SDS011;24370;51.986;4.666;2023-02-28T11:22:23;3.05;;;1.75;;
38615;SDS011;24370;51.986;4.666;2023-02-28T11:24:53;2.60;;;1.80;;
38615;SDS011;24370;51.986;4.666;2023-02-28T11:29:56;2.53;;;1.83;;
38615;SDS011;24370;51.986;4.666;2023-02-28T11:32:24;4.60;;;2.40;;
38615;SDS011;24370;51.986;4.666;2023-02-28T11:35:14;1.80;;;1.70;;
38615;SDS011;24370;51.986;4.666;2023-02-28T11:37:48;3.17;;;1.63;;
38615;SDS011;24370;51.986;4.666;2023-02-28T11:40:18;3.77;;;2.10;;
38615;SDS011;24370;51.986;4.666;2023-02-28T11:42:57;2.10;;;1.70;;
38615;SDS011;24370;51.986;4.666;2023-02-28T11:48:32;6.78;;;1.73;;
38615;SDS011;24370;51.986;4.666;2023-02-28T11:51:22;2.97;;;2.27;;
38615;SDS011;24370;51.986;4.666;2023-02-28T11:54:08;2.27;;;2.07;;
38615;SDS011;24370;51.986;4.666;2023-02-28T11:56:59;3.20;;;2.13;;
38615;SDS011;24370;51.986;4.666;2023-02-28T11:59:47;4.07;;;1.90;;
38615;SDS011;24370;51.986;4.666;2023-02-28T12:05:11;8.83;;;1.80;;
38615;SDS011;24370;51.986;4.666;2023-02-28T12:07:56;4.30;;;2.00;;
38615;SDS011;24370;51.986;4.666;2023-02-28T12:10:28;3.10;;;2.03;;
38615;SDS011;24370;51.986;4.666;2023-02-28T12:18:52;4.40;;;1.90;;
38615;SDS011;24370;51.986;4.666;2023-02-28T12:26:37;4.60;;;1.67;;
38615;SDS011;24370;51.986;4.666;2023-02-28T12:29:09;3.90;;;1.80;;
38615;SDS011;24370;51.986;4.666;2023-02-28T12:31:55;2.03;;;1.80;;
38615;SDS011;24370;51.986;4.666;2023-02-28T12:34:23;2.07;;;1.70;;
38615;SDS011;24370;51.986;4.666;2023-02-28T12:36:53;3.33;;;1.50;;
38615;SDS011;24370;51.986;4.666;2023-02-28T12:39:25;4.27;;;1.80;;
38615;SDS011;24370;51.986;4.666;2023-02-28T12:41:54;3.20;;;1.83;;
38615;SDS011;24370;51.986;4.666;2023-02-28T12:44:32;3.27;;;1.50;;
38615;SDS011;24370;51.986;4.666;2023-02-28T12:47:04;2.13;;;1.70;;
38615;SDS011;24370;51.986;4.666;2023-02-28T12:49:39;2.63;;;1.77;;
38615;SDS011;24370;51.986;4.666;2023-02-28T12:52:11;3.00;;;1.60;;
38615;SDS011;24370;51.986;4.666;2023-02-28T13:00:31;3.30;;;2.00;;
38615;SDS011;24370;51.986;4.666;2023-02-28T13:03:12;4.90;;;2.20;;
38615;SDS011;24370;51.986;4.666;2023-02-28T13:05:57;3.77;;;1.90;;
38615;SDS011;24370;51.986;4.666;2023-02-28T13:11:25;3.10;;;2.40;;
38615;SDS011;24370;51.986;4.666;2023-02-28T13:14:01;4.10;;;1.90;;
38615;SDS011;24370;51.986;4.666;2023-02-28T13:16:46;3.37;;;1.93;;
38615;SDS011;24370;51.986;4.666;2023-02-28T13:19:17;2.20;;;1.90;;
38615;SDS011;24370;51.986;4.666;2023-02-28T13:21:45;2.83;;;2.00;;
38615;SDS011;24370;51.986;4.666;2023-02-28T13:24:13;2.03;;;1.77;;
38615;SDS011;24370;51.986;4.666;2023-02-28T13:29:34;3.00;;;2.27;;
38615;SDS011;24370;51.986;4.666;2023-02-28T13:34:42;2.83;;;2.10;;
38615;SDS011;24370;51.986;4.666;2023-02-28T13:37:33;3.17;;;1.80;;
38615;SDS011;24370;51.986;4.666;2023-02-28T13:50:23;2.90;;;2.00;;
38615;SDS011;24370;51.986;4.666;2023-02-28T13:58:54;3.10;;;2.07;;
38615;SDS011;24370;51.986;4.666;2023-02-28T14:01:28;3.73;;;1.80;;
38615;SDS011;24370;51.986;4.666;2023-02-28T14:07:17;7.27;;;2.67;;
38615;SDS011;24370;51.986;4.666;2023-02-28T14:09:49;3.53;;;2.20;;
38615;SDS011;24370;51.986;4.666;2023-02-28T14:20:55;5.03;;;2.40;;
38615;SDS011;24370;51.986;4.666;2023-02-28T14:23:50;7.20;;;2.33;;
38615;SDS011;24370;51.986;4.666;2023-02-28T14:35:29;6.33;;;2.10;;
38615;SDS011;24370;51.986;4.666;2023-02-28T14:38:06;2.97;;;2.13;;
38615;SDS011;24370;51.986;4.666;2023-02-28T14:40:53;2.77;;;1.80;;
38615;SDS011;24370;51.986;4.666;2023-02-28T14:43:23;2.83;;;1.73;;
38615;SDS011;24370;51.986;4.666;2023-02-28T14:45:51;3.53;;;2.10;;
38615;SDS011;24370;51.986;4.666;2023-02-28T14:48:20;4.07;;;1.77;;
38615;SDS011;24370;51.986;4.666;2023-02-28T14:50:57;1.57;;;1.47;;
38615;SDS011;24370;51.986;4.666;2023-02-28T14:53:25;2.40;;;1.43;;
38615;SDS011;24370;51.986;4.666;2023-02-28T14:55:53;5.17;;;2.37;;
38615;SDS011;24370;51.986;4.666;2023-02-28T14:58:23;2.13;;;1.90;;
38615;SDS011;24370;51.986;4.666;2023-02-28T15:00:52;2.95;;;1.95;;
38615;SDS011;24370;51.986;4.666;2023-02-28T15:03:21;3.60;;;1.93;;
38615;SDS011;24370;51.986;4.666;2023-02-28T15:05:53;3.50;;;2.00;;
38615;SDS011;24370;51.986;4.666;2023-02-28T15:08:22;3.07;;;1.53;;
38615;SDS011;24370;51.986;4.666;2023-02-28T15:10:53;3.70;;;1.80;;
38615;SDS011;24370;51.986;4.666;2023-02-28T15:13:20;1.97;;;1.73;;
38615;SDS011;24370;51.986;4.666;2023-02-28T15:15:49;2.17;;;1.90;;
38615;SDS011;24370;51.986;4.666;2023-02-28T15:21:04;2.17;;;1.77;;
38615;SDS011;24370;51.986;4.666;2023-02-28T15:23:32;4.23;;;2.13;;
38615;SDS011;24370;51.986;4.666;2023-02-28T15:26:01;3.20;;;1.90;;
38615;SDS011;24370;51.986;4.666;2023-02-28T15:28:27;2.83;;;2.10;;
38615;SDS011;24370;51.986;4.666;2023-02-28T15:30:57;3.60;;;1.90;;
38615;SDS011;24370;51.986;4.666;2023-02-28T15:33:29;4.63;;;2.00;;
38615;SDS011;24370;51.986;4.666;2023-02-28T15:36:09;4.13;;;2.23;;
38615;SDS011;24370;51.986;4.666;2023-02-28T15:38:39;3.23;;;2.00;;
38615;SDS011;24370;51.986;4.666;2023-02-28T15:41:20;3.57;;;1.90;;
38615;SDS011;24370;51.986;4.666;2023-02-28T15:44:12;3.03;;;2.10;;
38615;SDS011;24370;51.986;4.666;2023-02-28T15:47:02;2.93;;;1.90;;
38615;SDS011;24370;51.986;4.666;2023-02-28T15:49:34;1.95;;;1.67;;
38615;SDS011;24370;51.986;4.666;2023-02-28T15:52:05;2.23;;;1.87;;
38615;SDS011;24370;51.986;4.666;2023-02-28T15:54:34;4.17;;;2.00;;
38615;SDS011;24370;51.986;4.666;2023-02-28T15:57:06;4.97;;;2.30;;
38615;SDS011;24370;51.986;4.666;2023-02-28T15:59:37;4.00;;;2.73;;
38615;SDS011;24370;51.986;4.666;2023-02-28T16:04:53;4.60;;;2.87;;
38615;SDS011;24370;51.986;4.666;2023-02-28T16:07:21;4.50;;;2.70;;
38615;SDS011;24370;51.986;4.666;2023-02-28T16:09:46;5.27;;;2.97;;
38615;SDS011;24370;51.986;4.666;2023-02-28T16:12:13;3.70;;;2.80;;
38615;SDS011;24370;51.986;4.666;2023-02-28T16:14:39;3.73;;;3.17;;
38615;SDS011;24370;51.986;4.666;2023-02-28T16:17:06;4.47;;;3.20;;
38615;SDS011;24370;51.986;4.666;2023-02-28T16:19:33;5.73;;;3.17;;
38615;SDS011;24370;51.986;4.666;2023-02-28T16:21:59;4.20;;;2.80;;
38615;SDS011;24370;51.986;4.666;2023-02-28T16:24:25;3.53;;;2.73;;
38615;SDS011;24370;51.986;4.666;2023-02-28T16:26:50;3.93;;;2.87;;
38615;SDS011;24370;51.986;4.666;2023-02-28T16:29:28;3.97;;;3.13;;
38615;SDS011;24370;51.986;4.666;2023-02-28T16:31:57;6.70;;;3.30;;
38615;SDS011;24370;51.986;4.666;2023-02-28T16:34:24;3.77;;;3.37;;
38615;SDS011;24370;51.986;4.666;2023-02-28T16:36:50;5.77;;;3.67;;
38615;SDS011;24370;51.986;4.666;2023-02-28T16:39:15;3.77;;;2.90;;
38615;SDS011;24370;51.986;4.666;2023-02-28T16:41:44;8.77;;;3.00;;
38615;SDS011;24370;51.986;4.666;2023-02-28T16:44:13;9.97;;;3.27;;
38615;SDS011;24370;51.986;4.666;2023-02-28T16:46:45;6.03;;;3.40;;
38615;SDS011;24370;51.986;4.666;2023-02-28T16:49:11;4.97;;;3.40;;
38615;SDS011;24370;51.986;4.666;2023-02-28T16:51:40;6.27;;;3.17;;
38615;SDS011;24370;51.986;4.666;2023-02-28T16:54:05;6.57;;;3.70;;
38615;SDS011;24370;51.986;4.666;2023-02-28T16:56:30;6.80;;;3.70;;
38615;SDS011;24370;51.986;4.666;2023-02-28T16:58:59;6.63;;;3.20;;
38615;SDS011;24370;51.986;4.666;2023-02-28T17:01:26;4.17;;;3.53;;
38615;SDS011;24370;51.986;4.666;2023-02-28T17:03:52;5.33;;;4.27;;
38615;SDS011;24370;51.986;4.666;2023-02-28T17:06:19;10.87;;;6.13;;
38615;SDS011;24370;51.986;4.666;2023-02-28T17:08:54;12.37;;;4.60;;
38615;SDS011;24370;51.986;4.666;2023-02-28T17:11:21;6.70;;;4.30;;
38615;SDS011;24370;51.986;4.666;2023-02-28T17:13:47;12.23;;;5.07;;
38615;SDS011;24370;51.986;4.666;2023-02-28T17:18:51;10.50;;;3.93;;